createdAt,value
2019-05-02T10:04:37.155Z,44.73
2019-05-02T10:07:06.078Z,45.00
2019-05-02T10:09:35.076Z,44.40
2019-05-02T10:12:04.371Z,44.25
2019-05-02T10:14:34.394Z,43.50
2019-05-02T10:17:07.139Z,43.55
2019-05-02T10:19:33.957Z,42.55
2019-05-02T10:22:02.898Z,42.05
2019-05-02T10:24:32.334Z,44.08
2019-05-02T10:27:04.140Z,44.40
2019-05-02T10:29:32.913Z,43.68
2019-05-02T10:32:02.048Z,44.90
2019-05-02T10:34:32.959Z,45.85
2019-05-02T10:37:03.117Z,43.15
2019-05-02T11:12:47.507Z,38.17
2019-05-02T11:15:18.645Z,41.18
2019-05-02T11:17:49.626Z,39.38
2019-05-02T11:20:18.954Z,31.47
2019-05-02T11:22:48.283Z,38.75
2019-05-02T11:25:17.660Z,39.13
2019-05-02T11:27:47.055Z,37.40
2019-05-02T11:30:21.062Z,39.40
2019-05-02T11:32:47.987Z,40.08
2019-05-02T11:35:17.323Z,37.58
2019-05-02T11:37:46.643Z,38.13
2019-05-02T11:40:16.363Z,35.98
2019-05-02T11:42:45.723Z,35.58
2019-05-02T11:45:15.059Z,34.78
2019-05-02T11:47:44.503Z,35.73
2019-05-02T11:50:13.966Z,32.73
2019-05-02T11:52:43.341Z,23.77
2019-05-02T11:55:13.067Z,37.20
2019-05-02T11:57:49.150Z,31.35
2019-05-02T12:00:19.019Z,28.70
2019-05-02T12:02:54.264Z,36.42
2019-05-02T12:05:26.520Z,38.02
2019-05-02T12:07:53.706Z,37.35
2019-05-02T12:10:23.037Z,37.88
2019-05-02T12:12:52.739Z,36.88
2019-05-02T12:15:22.359Z,35.52
2019-05-02T12:17:51.756Z,35.17
2019-05-02T12:20:22.757Z,33.65
2019-05-02T12:22:52.785Z,33.10
2019-05-02T12:25:22.424Z,33.38
2019-05-02T12:27:52.664Z,31.57
2019-05-02T12:30:22.863Z,35.15
2019-05-02T12:32:53.983Z,27.87
2019-05-02T12:35:24.287Z,19.90
2019-05-02T12:37:55.327Z,30.55
2019-05-02T12:40:24.936Z,30.45
2019-05-02T12:42:54.493Z,34.67
2019-05-02T12:45:23.894Z,38.17
2019-05-02T12:47:53.252Z,39.10
2019-05-02T12:50:23.655Z,39.05
2019-05-02T12:52:55.600Z,36.17
2019-05-02T12:55:24.983Z,35.73
2019-05-02T12:57:54.314Z,37.33
2019-05-02T13:00:23.695Z,36.88
2019-05-02T13:02:57.647Z,34.98
2019-05-02T13:05:27.020Z,32.35
2019-05-02T13:07:56.378Z,30.95
2019-05-02T13:10:27.422Z,34.98
2019-05-02T13:12:57.038Z,33.50
2019-05-02T13:15:26.485Z,34.50
2019-05-02T13:17:55.907Z,35.88
2019-05-02T13:20:29.515Z,33.20
2019-05-02T13:23:13.524Z,29.87
2019-05-02T13:25:42.896Z,33.63
2019-05-02T13:28:12.366Z,34.58
2019-05-02T13:30:52.468Z,32.73
2019-05-02T13:33:39.955Z,36.35
2019-05-02T13:36:12.653Z,33.88
2019-05-02T13:38:42.377Z,34.03
2019-05-02T13:41:12.134Z,31.30
2019-05-02T13:43:43.103Z,26.10
2019-05-02T13:46:14.082Z,18.80
2019-05-02T13:48:43.439Z,26.20
2019-05-02T13:51:12.880Z,22.20
2019-05-02T13:53:43.935Z,24.37
2019-05-02T13:56:25.204Z,24.12
2019-05-02T13:58:54.528Z,24.77
2019-05-02T14:01:24.043Z,24.40
2019-05-02T14:03:55.699Z,24.00
2019-05-02T14:06:30.239Z,23.98
2019-05-02T14:08:57.143Z,22.03
2019-05-02T14:11:46.354Z,21.07
2019-05-02T14:14:15.707Z,21.15
2019-05-02T14:16:45.067Z,20.68
2019-05-02T14:19:14.421Z,18.85
2019-05-02T14:21:43.829Z,22.50
2019-05-02T14:24:13.158Z,18.37
2019-05-02T14:26:43.416Z,19.55
2019-05-02T14:29:16.256Z,24.12
2019-05-02T14:31:44.025Z,25.17
2019-05-02T14:34:32.870Z,20.60
2019-05-02T14:37:02.406Z,20.35
2019-05-02T14:39:32.501Z,19.92
2019-05-02T14:42:02.216Z,19.80
2019-05-02T14:44:59.965Z,18.05
2019-05-02T14:47:02.756Z,24.00
2019-05-02T14:49:33.091Z,23.62
2019-05-02T14:52:06.862Z,25.55
2019-05-02T14:54:33.530Z,23.90
2019-05-02T14:57:07.280Z,25.88
2019-05-02T14:59:36.626Z,25.57
2019-05-02T15:02:07.896Z,23.62
2019-05-02T15:04:38.416Z,23.22
2019-05-02T15:07:08.647Z,22.60
2019-05-02T15:09:37.988Z,24.60
2019-05-02T15:12:14.268Z,28.95
2019-05-02T15:14:38.417Z,27.70
2019-05-02T15:17:08.032Z,29.82
2019-05-02T15:19:37.361Z,28.30
2019-05-02T15:22:22.786Z,27.85
2019-05-02T15:24:56.243Z,27.52
2019-05-02T15:27:24.231Z,24.23
2019-05-02T15:30:00.892Z,25.88
2019-05-02T15:32:44.925Z,24.30
2019-05-02T15:35:12.833Z,24.43
2019-05-02T15:37:42.111Z,22.82
2019-05-02T15:42:44.766Z,22.60
2019-05-02T15:45:14.169Z,20.70
2019-05-02T15:47:45.399Z,21.10
2019-05-02T15:50:21.372Z,19.48
2019-05-02T15:52:47.422Z,20.92
2019-05-02T15:55:16.766Z,18.63
2019-05-02T15:57:47.114Z,18.25
2019-05-02T16:00:25.784Z,20.13
2019-05-02T16:02:56.387Z,18.23
2019-05-02T16:05:25.576Z,19.50
2019-05-02T16:08:05.257Z,19.95
2019-05-02T16:10:26.062Z,18.87
2019-05-02T16:12:55.626Z,19.57
2019-05-02T16:15:26.452Z,19.07
2019-05-02T16:17:56.874Z,19.43
2019-05-02T16:20:28.666Z,20.85
2019-05-02T16:22:58.002Z,19.80
2019-05-02T16:25:27.347Z,19.42
2019-05-02T16:27:57.446Z,20.45
2019-05-02T16:30:27.745Z,19.93
2019-05-02T16:32:58.868Z,20.95
2019-05-02T16:35:32.859Z,20.77
2019-05-02T16:38:02.221Z,20.02
2019-05-02T16:40:32.807Z,20.50
2019-05-02T16:43:03.003Z,20.65
2019-05-02T16:45:33.842Z,19.57
2019-05-02T16:48:03.469Z,21.15
2019-05-02T16:50:36.778Z,20.00
2019-05-02T16:53:05.418Z,20.25
2019-05-02T16:55:34.808Z,20.70
2019-05-02T16:58:07.125Z,20.90
2019-05-02T17:00:36.950Z,19.55
2019-05-02T17:03:06.704Z,21.30
2019-05-02T17:05:39.352Z,20.37
2019-05-02T17:08:10.743Z,19.87
2019-05-02T17:10:52.647Z,26.02
2019-05-02T17:13:18.424Z,25.48
2019-05-02T17:15:47.762Z,22.35
2019-05-02T17:18:18.224Z,19.90
2019-05-02T17:20:53.494Z,18.57
2019-05-02T17:23:19.003Z,18.12
2019-05-02T17:25:48.346Z,16.85
2019-05-02T17:28:17.683Z,17.15
2019-05-02T17:30:47.079Z,16.05
2019-05-02T17:33:17.450Z,15.35
2019-05-02T17:35:51.481Z,16.27
2019-05-02T17:38:19.002Z,16.60
2019-05-02T17:40:51.582Z,15.50
2019-05-02T17:43:19.967Z,15.40
2019-05-02T17:45:49.328Z,14.93
2019-05-02T17:48:18.775Z,15.23
2019-05-02T17:50:59.498Z,15.18
2019-05-02T17:53:33.920Z,14.53
2019-05-02T17:56:01.736Z,16.10
2019-05-02T17:58:31.742Z,14.00
2019-05-02T18:01:03.009Z,16.10
2019-05-02T18:03:35.408Z,15.10
2019-05-02T18:06:07.519Z,15.40
2019-05-02T18:08:36.225Z,15.18
2019-05-02T18:11:06.662Z,14.83
2019-05-02T18:13:36.004Z,15.95
2019-05-02T18:16:07.574Z,15.45
2019-05-02T18:18:37.489Z,15.17
2019-05-02T18:21:07.563Z,15.90
2019-05-02T18:23:36.992Z,15.98
2019-05-02T18:26:06.542Z,15.95
2019-05-02T18:28:46.234Z,17.80
2019-05-02T18:31:07.018Z,17.20
2019-05-02T18:33:41.320Z,16.20
2019-05-02T18:36:07.384Z,17.40
2019-05-02T18:38:36.714Z,17.50
2019-05-02T18:41:07.770Z,19.02
2019-05-02T18:43:43.484Z,19.33
2019-05-02T18:46:08.228Z,18.23
2019-05-02T18:48:42.191Z,17.85
2019-05-02T18:51:08.614Z,18.57
2019-05-02T18:53:38.003Z,18.75
2019-05-02T18:56:07.590Z,19.80
2019-05-02T18:58:41.300Z,20.10
2019-05-02T19:01:08.492Z,18.03
2019-05-02T19:03:39.227Z,18.00
2019-05-02T19:06:08.562Z,18.35
2019-05-02T19:08:46.722Z,16.75
2019-05-02T19:11:12.562Z,16.15
2019-05-02T19:13:42.789Z,16.42
2019-05-02T19:16:14.247Z,16.73
2019-05-02T19:18:49.018Z,16.75
2019-05-02T19:21:15.779Z,16.57
2019-05-02T19:23:45.304Z,18.05
2019-05-02T19:26:15.472Z,18.73
2019-05-02T19:28:46.647Z,17.00
2019-05-02T19:31:16.158Z,17.10
2019-05-02T19:33:45.497Z,16.90
2019-05-02T19:36:16.459Z,17.62
2019-05-02T19:38:46.012Z,17.90
2019-05-02T19:41:15.448Z,18.00
2019-05-02T19:43:49.443Z,16.67
2019-05-02T19:46:17.044Z,16.63
2019-05-02T19:48:46.592Z,16.15
2019-05-02T19:51:18.782Z,16.17
2019-05-02T19:53:53.423Z,17.82
2019-05-02T19:56:18.989Z,17.40
2019-05-02T19:58:48.340Z,17.67
2019-05-02T20:01:23.012Z,17.67
2019-05-02T20:03:48.951Z,19.60
2019-05-02T20:06:18.607Z,18.07
2019-05-02T20:09:04.806Z,18.45
2019-05-02T20:11:34.361Z,17.70
2019-05-02T20:14:09.290Z,20.57
2019-05-02T20:16:44.142Z,17.07
2019-05-02T20:19:12.299Z,17.80
2019-05-02T20:21:43.307Z,18.37
2019-05-02T20:24:15.302Z,18.60
2019-05-02T20:26:46.624Z,18.03
2019-05-02T20:29:14.836Z,21.77
2019-05-02T20:31:44.205Z,32.67
2019-05-02T20:34:13.535Z,32.80
2019-05-02T20:36:42.883Z,20.50
2019-05-02T20:39:12.382Z,20.27
2019-05-02T20:41:42.033Z,19.27
2019-05-02T20:44:12.164Z,18.17
2019-05-02T20:46:42.118Z,17.40
2019-05-02T20:49:12.791Z,20.20
2019-05-02T20:51:42.531Z,21.27
2019-05-02T20:54:12.570Z,20.68
2019-05-02T20:56:42.647Z,18.60
2019-05-02T20:59:13.376Z,18.30
2019-05-02T21:01:42.981Z,18.80
2019-05-02T21:04:12.575Z,17.55
2019-05-02T21:06:44.174Z,16.93
2019-05-02T21:09:24.305Z,16.37
2019-05-02T21:11:55.367Z,15.90
2019-05-02T21:14:24.803Z,16.55
2019-05-02T21:16:54.135Z,15.53
2019-05-02T21:19:23.478Z,13.85
2019-05-02T21:21:53.576Z,14.63
2019-05-02T21:24:23.014Z,14.73
2019-05-02T21:26:52.623Z,13.93
2019-05-02T21:29:22.905Z,14.78
2019-05-02T21:31:53.196Z,14.80
2019-05-02T21:34:22.553Z,15.10
2019-05-02T21:36:53.060Z,15.08
2019-05-02T21:39:22.605Z,14.60
2019-05-02T21:41:52.172Z,13.58
2019-05-02T21:44:22.312Z,14.28
2019-05-02T21:46:51.959Z,12.68
2019-05-02T21:49:37.815Z,12.82
2019-05-02T21:52:08.874Z,13.65
2019-05-02T21:54:42.531Z,13.37
2019-05-02T21:57:13.603Z,13.65
2019-05-02T21:59:42.967Z,13.00
2019-05-02T22:02:12.864Z,13.78
2019-05-02T22:04:42.349Z,14.73
2019-05-02T22:07:12.199Z,15.28
2019-05-02T22:09:41.785Z,14.03
2019-05-02T22:12:11.993Z,16.07
2019-05-02T22:14:42.143Z,14.63
2019-05-02T22:17:12.704Z,13.28
2019-05-02T22:19:42.252Z,15.38
2019-05-02T22:22:12.211Z,14.55
2019-05-02T22:24:42.125Z,14.87
2019-05-02T22:27:12.364Z,15.35
2019-05-02T22:29:43.015Z,16.45
2019-05-02T22:32:12.610Z,15.75
2019-05-02T22:34:45.239Z,16.15
2019-05-02T22:37:15.775Z,16.00
2019-05-02T22:39:46.771Z,15.73
2019-05-02T22:44:45.939Z,16.55
2019-05-02T22:47:15.351Z,16.82
2019-05-02T22:49:44.779Z,18.67
2019-05-02T22:52:14.908Z,18.30
2019-05-02T22:54:44.256Z,18.35
2019-05-02T22:57:14.228Z,20.45
2019-05-02T22:59:43.882Z,20.48
2019-05-02T23:02:13.582Z,20.27
2019-05-02T23:04:42.960Z,21.35
2019-05-02T23:07:12.713Z,22.50
2019-05-02T23:09:43.763Z,21.65
2019-05-02T23:12:14.360Z,23.42
2019-05-02T23:14:43.747Z,22.67
2019-05-02T23:17:13.095Z,22.58
2019-05-02T23:19:42.557Z,22.37
2019-05-02T23:22:12.719Z,25.12
2019-05-02T23:24:43.940Z,23.67
2019-05-02T23:27:28.334Z,24.40
2019-05-02T23:29:57.671Z,25.20
2019-05-02T23:32:26.993Z,26.07
2019-05-02T23:34:56.319Z,26.50
2019-05-02T23:37:25.651Z,28.10
2019-05-02T23:39:54.978Z,27.25
2019-05-02T23:42:24.314Z,27.52
2019-05-02T23:44:53.634Z,26.60
2019-05-02T23:47:23.000Z,25.88
2019-05-02T23:49:52.427Z,25.90
2019-05-02T23:52:22.502Z,27.98
2019-05-02T23:54:52.594Z,26.62
2019-05-02T23:57:22.945Z,26.73
2019-05-02T23:59:52.573Z,27.40
